Connexion S'enregistrer

Connexion à votre compte

Identifiant
Mot de passe
Maintenir la connexion active sur ce site

Créer un compte

Pour valider ce formulaire, vous devez remplir tous les champs.
Nom
Identifiant
Mot de passe
Répétez le mot de passe
Adresse e-mail
Répétez l'adresse e-mail

Veuillez saisir l'adresse e-mail associée à votre compte d'utilisateur. Votre identifiant vous sera envoyé à cette adresse.

Nous contacter

 Téléphone : +33 (0)4 79 54 41 81

Coordonnées détaillées et accès : cliquez ici

 
LFLB °C
    Ferienhaus Ostsee
[source: ADDS]
METAR
LFLB 262200Z AUTO 23002KT 9999 SCT074 SCT110 15/12 Q1015 =
TAF
TAF LFLB 261100Z 2612/2712 32005KT 9999 SCT040 SCT070 BECMG 2616/2619 VRB03KT CAVOK =
SR / SS: 04:15 / 19:10 UTC (Lever/Coucher du soleil le 2017-07-27)
JSN Boot template designed by JoomlaShine.com